KBFL/BFL METAR and TAF weather

Enter ICAO airport designator
Station Type Date Time Source
KBFL METAR 2019/02/16 02:54 UTC NOAA

KBFL 160254Z 00000KT 10SM SCT047 OVC055 11/08 A3004 RMK AO2 SLP172 60001 T01060078 53007


Station Type Date Time Source
KBFL Decoded METAR 2019/02/16 02:54 UTC NOAA

BAKERSFIELD MEADOWS FIELD, CA, United States (KBFL) 35-26N 119-03W 151M
Feb 15, 2019 - 09:54 PM EST / 2019.02.16 0254 UTC
Wind: Calm:0
Visibility: 10 mile(s):0
Sky conditions: overcast
Temperature: 51.1 F (10.6 C)
Dew Point: 46.0 F (7.8 C)
Relative Humidity: 82%
Pressure (altimeter): 30.04 in. Hg (1017 hPa)
Pressure tendency: 0.02 inches (0.7 hPa) higher than three hours ago
ob: KBFL 160254Z 00000KT 10SM SCT047 OVC055 11/08 A3004 RMK AO2 SLP172 60001 T01060078 53007
cycle: 3

Station Type Date Time Source
KBFL TAF 2019/02/15 18:22 UTC NOAA

TAF KBFL 151720Z 1518/1618 VRB04KT P6SM BKN050 OVC080
FM152100 30012KT P6SM -SHRA BKN030 OVC050
FM160000 32015KT P6SM -SHRA BKN030 OVC050
FM160900 VRB05KT P6SM SCT030 BKN050


Example: see airport list